Latest Weather Observations for Kununurra Airport

IDW60801

Issued at 11:04 pm WST Wednesday 8 July 2020 (issued every 10 minutes, with the page automatically refreshed every 10 minutes)

About weather observations | Map of weather stations | Latest weather observations for WA | Other Formats
Station Details ID: 002056 Name: KUNUNURRA AERO Lat: -15.78 Lon: 128.71 Height: 44.0 m
Data from the previous 72 hours. | See also: Recent months at Kununurra Airport
Date/Time
WST
Temp
°C
App
Temp
°C
Dew
Point
°C
Rel
Hum
%
Delta-T
°C
Wind Press
QNH
hPa
Press
MSL
hPa
Rain since
9am
mm
Dir  Spd
km/h
Gust
km/h
Spd
kts
Gust
kts
08/11:00pm 14.7 - - - - CALM 0 0 0 0 1014.6 1014.5 0.0
08/10:30pm 14.4 - - - - SSE 4 7 2 4 1014.7 1014.6 0.0
08/10:00pm 15.2 - - - - CALM 0 0 0 0 1014.8 1014.7 0.0
08/09:30pm 15.3 - - - - CALM 0 0 0 0 1014.8 1014.7 0.0
08/09:00pm 15.8 - - - - SSE 2 6 1 3 1014.7 1014.6 0.0
08/08:30pm 16.0 - - - - SSE 2 6 1 3 1014.8 1014.7 0.0
08/08:00pm 16.3 - - - - CALM 0 6 0 3 1014.6 1014.5 0.0
08/07:30pm 18.0 - - - - CALM 0 0 0 0 1014.6 1014.5 0.0
08/07:00pm 18.3 - - - - SSE 2 6 1 3 1014.1 1014.0 0.0
08/06:30pm 19.2 - - - - SSE 6 7 3 4 1013.9 1013.8 0.0
08/06:00pm 20.2 - - - - CALM 0 6 0 3 1013.5 1013.4 0.0
08/05:30pm 23.5 - - - - E 9 11 5 6 1013.3 1013.2 0.0
08/05:00pm 26.2 - - - - ESE 9 11 5 6 1013.0 1012.9 0.0
08/04:30pm 28.4 - - - - SE 9 11 5 6 1012.8 1012.7 0.0
08/04:00pm 29.0 - - - - ESE 9 13 5 7 1012.9 1012.8 0.0
08/03:30pm 29.1 - - - - SE 13 19 7 10 1012.7 1012.6 0.0
08/03:00pm 29.2 - - - - SE 13 17 7 9 1012.7 1012.6 0.0
08/02:30pm 29.1 - - - - SE 11 15 6 8 1013.1 1013.0 0.0
08/02:00pm 28.9 - - - - SE 17 24 9 13 1013.2 1013.1 0.0
08/01:30pm 28.8 - - - - ESE 17 24 9 13 1013.5 1013.4 0.0
08/01:00pm 28.1 - - - - SE 15 20 8 11 1013.9 1013.8 0.0
08/12:30pm 28.2 - - - - ESE 17 24 9 13 1014.4 1014.3 0.0
08/12:00pm 27.6 - - - - SE 17 22 9 12 1015.0 1014.9 0.0
08/11:30am 27.5 - - - - SE 17 24 9 13 1015.5 1015.4 0.0
08/11:00am 26.8 - - - - ESE 20 28 11 15 1016.1 1016.0 0.0
08/10:30am 26.2 - - - - ESE 24 35 13 19 1016.7 1016.6 0.0
08/10:00am 25.9 - - - - ESE 28 35 15 19 1017.3 1017.2 0.0
08/09:30am 24.7 - - - - ESE 26 37 14 20 1017.7 1017.6 0.0
08/09:00am 24.6 - - - - ESE 28 37 15 20 1017.7 1017.6 0.0
08/08:30am 23.5 - - - - ESE 28 39 15 21 1017.7 1017.6 0.0
08/08:00am 22.8 - - - - SE 15 24 8 13 1017.7 1017.6 0.0
08/07:30am 19.6 - - - - SSE 4 7 2 4 1017.6 1017.5 0.0
08/07:05am 17.1 - - - - CALM 0 0 0 0 1017.6 1017.5 0.0
08/07:00am 16.4 - - - - CALM 0 0 0 0 1017.6 1017.5 0.0
08/06:41am 14.2 - - - - CALM 0 6 0 3 1017.6 1017.5 0.0
08/06:30am 12.5 - - - - E 2 7 1 4 1017.5 1017.4 0.0
08/06:00am 10.7 6.4 -36.8 2 8.6 S 2 6 1 3 1017.0 1016.9 0.0
08/05:30am 10.8 8.8 -0.3 46 4.5 CALM 0 6 0 3 1016.7 1016.6 0.0
08/05:00am 11.2 8.7 3.7 60 3.3 SSW 6 9 3 5 1016.4 1016.3 0.0
08/04:30am 11.8 9.2 4.3 60 3.4 S 7 9 4 5 1016.0 1015.9 0.0
08/04:00am 12.3 9.8 5.0 61 3.4 SSE 7 7 4 4 1015.9 1015.8 0.0
08/03:30am 12.6 9.3 2.7 51 4.3 SSE 9 11 5 6 1015.8 1015.7 0.0
08/03:00am 12.6 - - - - SSW 2 7 1 4 1015.8 1015.7 0.0
08/02:30am 12.0 - - - - CALM 0 0 0 0 1015.8 1015.7 0.0
08/02:00am 12.9 - - - - CALM 0 0 0 0 1015.7 1015.6 0.0
08/01:30am 12.6 - - - - CALM 0 6 0 3 1015.9 1015.8 0.0
08/01:00am 13.6 - - - - CALM 0 0 0 0 1016.1 1016.0 0.0
08/12:52am 13.9 - - - - E 2 9 1 5 1016.1 1016.0 0.0
08/12:30am 19.0 - - - - SSE 15 15 8 8 1016.1 1016.0 0.0
08/12:00am 15.6 - - - - SSE 9 11 5 6 1016.3 1016.2 0.0
 
Date/Time
WST
Temp
°C
App
Temp
°C
Dew
Point
°C
Rel
Hum
%
Delta-T
°C
Wind Press
QNH
hPa
Press
MSL
hPa
Rain since
9am
mm
Dir  Spd
km/h
Gust
km/h
Spd
kts
Gust
kts
07/11:30pm 14.3 - - - - CALM 0 6 0 3 1016.2 1016.1 0.0
07/11:00pm 14.5 - - - - CALM 0 0 0 0 1016.2 1016.1 0.0
07/10:30pm 14.9 - - - - SSE 2 6 1 3 1016.0 1015.9 0.0
07/10:00pm 14.4 - - - - SW 2 6 1 3 1016.0 1015.9 0.0
07/09:30pm 14.7 - - - - SW 4 6 2 3 1016.0 1015.9 0.0
07/09:00pm 15.0 - - - - SSE 2 6 1 3 1016.0 1015.9 0.0
07/08:30pm 16.9 - - - - SSE 6 7 3 4 1016.0 1015.9 0.0
07/08:00pm 18.1 - - - - SSE 2 7 1 4 1016.0 1015.9 0.0
07/07:30pm 17.8 - - - - CALM 0 0 0 0 1015.8 1015.7 0.0
07/07:14pm 17.9 - - - - CALM 0 0 0 0 1015.6 1015.5 0.0
07/07:00pm 18.9 - - - - ESE 2 6 1 3 1015.4 1015.3 0.0
07/06:43pm 19.9 - - - - ESE 7 9 4 5 1015.2 1015.1 0.0
07/06:30pm 21.4 - - - - ESE 9 11 5 6 1015.1 1015.0 0.0
07/06:00pm 21.2 - - - - ESE 9 9 5 5 1015.0 1014.9 0.0
07/05:30pm 23.7 - - - - SE 9 13 5 7 1014.8 1014.7 0.0
07/05:00pm 25.8 - - - - SE 9 13 5 7 1014.5 1014.4 0.0
07/04:30pm 27.5 - - - - SE 13 17 7 9 1014.4 1014.3 0.0
07/04:00pm 28.2 - - - - ESE 15 20 8 11 1014.4 1014.3 0.0
07/03:30pm 28.6 - - - - SE 13 19 7 10 1014.3 1014.2 0.0
07/03:00pm 28.5 - - - - SE 17 24 9 13 1014.4 1014.3 0.0
07/02:30pm 28.3 - - - - SE 17 22 9 12 1014.6 1014.5 0.0
07/02:00pm 28.4 - - - - SE 15 22 8 12 1014.9 1014.8 0.0
07/01:30pm 27.9 - - - - ESE 20 28 11 15 1015.3 1015.2 0.0
07/01:00pm 27.8 - - - - SE 19 28 10 15 1015.8 1015.7 0.0
07/12:30pm 28.0 - - - - SE 19 28 10 15 1016.4 1016.3 0.0
07/12:00pm 26.7 - - - - SE 17 26 9 14 1016.9 1016.8 0.0
07/11:30am 26.4 - - - - ESE 20 28 11 15 1017.6 1017.5 0.0
07/11:00am 25.1 - - - - SE 17 28 9 15 1018.3 1018.2 0.0
07/10:30am 24.9 - - - - ESE 22 32 12 17 1018.9 1018.7 0.0
07/10:00am 24.3 - - - - SE 19 28 10 15 1019.2 1019.0 0.0
07/09:30am 23.0 - - - - ESE 24 32 13 17 1019.8 1019.6 0.0
07/09:00am 22.7 - - - - ESE 26 35 14 19 1020.0 1019.8 0.0
07/08:30am 21.9 - - - - ESE 24 35 13 19 1019.9 1019.7 0.0
07/08:00am 21.5 - - - - SE 15 30 8 16 1020.0 1019.8 0.0
07/07:30am 19.5 - - - - S 9 13 5 7 1019.6 1019.4 0.0
07/07:00am 18.4 - - - - S 9 11 5 6 1019.4 1019.2 0.0
07/06:30am 17.5 - - - - S 11 13 6 7 1019.2 1019.0 0.0
07/06:00am 16.9 - - - - S 11 15 6 8 1018.9 1018.7 0.0
07/05:30am 16.5 - - - - S 11 15 6 8 1018.6 1018.4 0.0
07/05:00am 16.5 - - - - S 11 15 6 8 1018.1 1018.0 0.0
07/04:30am 16.5 - - - - S 9 13 5 7 1017.8 1017.7 0.0
07/04:00am 15.5 - - - - S 9 11 5 6 1017.8 1017.7 0.0
07/03:30am 16.9 - - - - SSE 9 13 5 7 1017.8 1017.7 0.0
07/03:00am 17.4 - - - - S 11 15 6 8 1018.0 1017.9 0.0
07/02:30am 18.2 - - - - SSE 11 13 6 7 1017.8 1017.7 0.0
07/02:00am 18.9 - - - - SSE 13 17 7 9 1017.6 1017.5 0.0
07/01:30am 18.5 - - - - SSE 9 15 5 8 1017.6 1017.5 0.0
07/01:00am 18.2 - - - - S 11 15 6 8 1017.8 1017.7 0.0
07/12:30am 18.3 - - - - SSW 11 13 6 7 1017.8 1017.7 0.0
07/12:00am 20.0 - - - - SSE 13 22 7 12 1017.8 1017.7 0.0
 
Date/Time
WST
Temp
°C
App
Temp
°C
Dew
Point
°C
Rel
Hum
%
Delta-T
°C
Wind Press
QNH
hPa
Press
MSL
hPa
Rain since
9am
mm
Dir  Spd
km/h
Gust
km/h
Spd
kts
Gust
kts
06/11:30pm 17.6 - - - - SSE 7 17 4 9 1017.9 1017.8 0.0
06/11:00pm 14.8 - - - - E 2 6 1 3 1017.9 1017.8 0.0
06/10:30pm 16.1 - - - - SE 4 6 2 3 1017.9 1017.8 0.0
06/10:00pm 18.2 - - - - SE 9 13 5 7 1017.8 1017.7 0.0
06/09:30pm 17.6 - - - - SSE 7 9 4 5 1017.9 1017.8 0.0
06/09:00pm 17.8 - - - - SSE 9 9 5 5 1017.9 1017.8 0.0
06/08:49pm 17.2 - - - - SSE 9 9 5 5 1017.9 1017.8 0.0
06/08:30pm 16.9 - - - - SSE 6 9 3 5 1017.9 1017.8 0.0
06/08:08pm 17.2 - - - - SSE 4 7 2 4 1017.7 1017.6 0.0
06/08:00pm 16.9 - - - - SSE 6 7 3 4 1017.6 1017.5 0.0
06/07:30pm 17.5 - - - - CALM 0 0 0 0 1017.5 1017.4 0.0
06/07:00pm 18.6 - - - - CALM 0 0 0 0 1017.2 1017.1 0.0
06/06:30pm 20.9 - - - - SSE 6 11 3 6 1016.7 1016.6 0.0
06/06:00pm 21.7 - - - - ESE 9 13 5 7 1016.4 1016.3 0.0
06/05:30pm 24.4 - - - - ESE 11 15 6 8 1016.1 1016.0 0.0
06/05:00pm 26.2 - - - - SE 15 22 8 12 1015.7 1015.6 0.0
06/04:30pm 27.0 - - - - ESE 17 22 9 12 1015.2 1015.1 0.0
06/04:00pm 28.0 - - - - ESE 20 26 11 14 1015.0 1014.9 0.0
06/03:30pm 28.4 - - - - SSE 17 22 9 12 1014.8 1014.7 0.0
06/03:00pm 28.3 - - - - ESE 19 26 10 14 1014.9 1014.8 0.0
06/02:30pm 28.7 - - - - SE 17 26 9 14 1015.0 1014.9 0.0
06/02:00pm 28.5 - - - - ESE 19 26 10 14 1015.3 1015.2 0.0
06/01:30pm 28.1 - - - - ESE 22 33 12 18 1015.7 1015.6 0.0
06/01:00pm 28.1 - - - - SE 20 30 11 16 1015.8 1015.7 0.0
06/12:30pm 27.6 - - - - ESE 24 33 13 18 1016.0 1015.9 0.0
06/12:00pm 26.8 - - - - SE 17 24 9 13 1016.6 1016.5 0.0
06/11:30am 25.8 - - - - SE 20 28 11 15 1017.4 1017.3 0.0
06/11:00am 25.5 - - - - SE 19 26 10 14 1018.1 1018.0 0.0
06/10:30am 24.8 - - - - SE 22 35 12 19 1018.7 1018.5 0.0
06/10:00am 24.3 - - - - SE 24 33 13 18 1019.2 1019.0 0.0
06/09:30am 23.7 - - - - ESE 26 39 14 21 1019.4 1019.2 0.0
06/09:00am 22.9 - - - - ESE 28 35 15 19 1019.7 1019.5 0.0
06/08:30am 22.4 - - - - ESE 26 39 14 21 1019.9 1019.7 0.0
06/08:00am 21.7 - - - - ESE 22 33 12 18 1019.8 1019.6 0.0
06/07:30am 21.1 - - - - SE 17 22 9 12 1019.9 1019.7 0.0
06/07:00am 18.7 - - - - SSW 9 13 5 7 1019.8 1019.6 0.0
06/06:30am 16.4 - - - - WSW 9 11 5 6 1019.5 1019.3 0.0
06/06:00am 14.0 - - - - WSW 6 9 3 5 1019.0 1018.8 0.0
06/05:30am 14.4 - - - - ESE 6 17 3 9 1018.7 1018.5 0.0
06/05:27am 14.8 - - - - ESE 7 17 4 9 1018.7 1018.5 0.0
06/05:00am 19.9 - - - - SE 17 22 9 12 1018.2 1018.1 0.0
06/04:30am 19.8 - - - - SE 15 19 8 10 1017.9 1017.8 0.0
06/04:00am 19.8 - - - - SE 15 22 8 12 1017.7 1017.6 0.0
06/03:30am 20.3 - - - - SE 15 20 8 11 1017.7 1017.6 0.0
06/03:00am 19.4 - - - - SSE 9 17 5 9 1017.7 1017.6 0.0
06/02:30am 17.3 - - - - S 9 13 5 7 1017.5 1017.4 0.0
06/02:00am 17.6 - - - - SSW 9 11 5 6 1017.6 1017.5 0.0
06/01:30am 17.5 - - - - SW 9 13 5 7 1017.7 1017.6 0.0
06/01:00am 14.1 - - - - W 6 9 3 5 1017.7 1017.6 0.0
06/12:30am 13.7 - - - - SW 9 11 5 6 1017.7 1017.6 0.0
06/12:00am 13.3 - - - - W 6 6 3 3 1017.8 1017.7 0.0
 
Date/Time
WST
Temp
°C
App
Temp
°C
Dew
Point
°C
Rel
Hum
%
Delta-T
°C
Wind Press
QNH
hPa
Press
MSL
hPa
Rain since
9am
mm
Dir  Spd
km/h
Gust
km/h
Spd
kts
Gust
kts
05/11:30pm 14.1 - - - - W 2 6 1 3 1017.9 1017.8 0.0

Other formats

Comma delimited format used in spreadsheet applications
http://www.bom.gov.au/fwo/IDW60801/IDW60801.94216.axf

JavaScript Object Notation format (JSON) in row-major order
http://www.bom.gov.au/fwo/IDW60801/IDW60801.94216.json

Data quality

Most of these data are generated automatically and are frequently updated. Quality checks on data are not normally performed. It is possible for incorrect values to appear. Refer to information at About Latest Weather Observations and please check the disclaimer before using these data.